DLH731 EDDH-EGSS
Flight info
| Callsign | DLH731 |
|---|---|
| Flight time | 1h 14m |
| Altitude | 34000 |
| Route | WSN5G WSN N125 EKNON DCT NOGRO M40 RINIS |
| Aircraft | A321/M-SDE3FGHIRWY/LB1 |
Departure
| Time | 2026-05-04 11:22 |
|---|---|
| Airport | Hamburg Helmut Schmidt Airport (EDDH) |
Arrival
| Time | 2026-05-04 12:36 |
|---|---|
| Airport | London Stansted Airport (EGSS) |
| Time | Latitude | Longitude | Altitude | Speed | Heading |
|---|---|---|---|---|---|
| 2026-05-04 10:43 | 53.63169 | 10.00103 | 49 ft | 0 kts | 141° |
| 2026-05-04 11:12 | 53.63188 | 10.00076 | 47 ft | 4 kts | 135° |
| 2026-05-04 11:12 | 53.63204 | 10.00042 | 48 ft | 4 kts | 106° |
| 2026-05-04 11:12 | 53.63203 | 10.00010 | 51 ft | 3 kts | 49° |
| 2026-05-04 11:13 | 53.63185 | 9.99975 | 50 ft | 4 kts | 50° |
| 2026-05-04 11:13 | 53.63181 | 9.99967 | 50 ft | 0 kts | 50° |
| 2026-05-04 11:16 | 53.63199 | 10.00004 | 51 ft | 3 kts | 50° |
| 2026-05-04 11:16 | 53.63216 | 10.00037 | 46 ft | 4 kts | 50° |
| 2026-05-04 11:16 | 53.63234 | 10.00085 | 51 ft | 6 kts | 67° |
| 2026-05-04 11:17 | 53.63226 | 10.00151 | 51 ft | 6 kts | 125° |
| 2026-05-04 11:17 | 53.63180 | 10.00185 | 51 ft | 10 kts | 169° |
| 2026-05-04 11:19 | 53.62889 | 9.99898 | 49 ft | 0 kts | 242° |
| 2026-05-04 11:19 | 53.62887 | 9.99893 | 50 ft | 2 kts | 242° |
| 2026-05-04 11:19 | 53.62874 | 9.99848 | 53 ft | 6 kts | 243° |
| 2026-05-04 11:19 | 53.62861 | 9.99779 | 53 ft | 6 kts | 275° |
| 2026-05-04 11:20 | 53.62889 | 9.99722 | 53 ft | 7 kts | 326° |
| 2026-05-04 11:20 | 53.62906 | 9.99705 | 53 ft | 0 kts | 329° |
| 2026-05-04 11:20 | 53.63059 | 9.99570 | 52 ft | 61 kts | 332° |
| 2026-05-04 11:20 | 53.63629 | 9.99069 | 51 ft | 124 kts | 331° |
| 2026-05-04 11:22 | 53.70901 | 9.92322 | 2769 ft | 208 kts | 302° |
| 2026-05-04 11:22 | 53.71372 | 9.90056 | 3241 ft | 208 kts | 275° |
| 2026-05-04 11:23 | 53.71146 | 9.87600 | 3514 ft | 223 kts | 253° |
| 2026-05-04 11:23 | 53.70635 | 9.84982 | 3697 ft | 245 kts | 253° |
| 2026-05-04 11:24 | 53.67225 | 9.67892 | 7839 ft | 264 kts | 252° |
| 2026-05-04 11:25 | 53.66644 | 9.64942 | 8529 ft | 266 kts | 252° |
| 2026-05-04 11:25 | 53.66056 | 9.61970 | 9212 ft | 268 kts | 252° |
| 2026-05-04 11:25 | 53.65453 | 9.58980 | 9907 ft | 271 kts | 249° |
| 2026-05-04 11:26 | 53.63348 | 9.53403 | 10489 ft | 302 kts | 236° |
| 2026-05-04 11:27 | 53.53179 | 9.29860 | 12372 ft | 381 kts | 235° |
| 2026-05-04 11:28 | 53.51619 | 9.26249 | 12876 ft | 383 kts | 235° |
| 2026-05-04 11:28 | 53.50048 | 9.22618 | 13376 ft | 385 kts | 235° |
| 2026-05-04 11:28 | 53.48469 | 9.18970 | 13865 ft | 388 kts | 235° |
| 2026-05-04 11:28 | 53.46925 | 9.15412 | 14297 ft | 389 kts | 235° |
| 2026-05-04 11:29 | 53.45328 | 9.11732 | 14742 ft | 391 kts | 235° |
| 2026-05-04 11:29 | 53.43723 | 9.08044 | 15191 ft | 392 kts | 235° |
| 2026-05-04 11:29 | 53.42109 | 9.04346 | 15642 ft | 393 kts | 234° |
| 2026-05-04 11:29 | 53.40488 | 9.00639 | 16089 ft | 395 kts | 234° |
| 2026-05-04 11:31 | 53.31363 | 8.72239 | 18944 ft | 406 kts | 249° |
| 2026-05-04 11:33 | 53.24609 | 8.40759 | 21421 ft | 417 kts | 252° |
| 2026-05-04 11:33 | 53.23762 | 8.36121 | 21762 ft | 418 kts | 252° |
| 2026-05-04 11:33 | 53.22924 | 8.31466 | 22093 ft | 420 kts | 252° |
| 2026-05-04 11:34 | 53.22089 | 8.26871 | 22432 ft | 421 kts | 252° |
| 2026-05-04 11:34 | 53.21223 | 8.22190 | 22746 ft | 422 kts | 251° |
| 2026-05-04 11:34 | 53.20339 | 8.17508 | 23084 ft | 424 kts | 252° |
| 2026-05-04 11:34 | 53.19442 | 8.12821 | 23400 ft | 424 kts | 252° |
| 2026-05-04 11:35 | 53.18540 | 8.08131 | 23652 ft | 425 kts | 252° |
| 2026-05-04 11:35 | 53.17644 | 8.03426 | 23864 ft | 426 kts | 252° |
| 2026-05-04 11:35 | 53.16752 | 7.98710 | 24086 ft | 427 kts | 252° |
| 2026-05-04 11:35 | 53.15859 | 7.93985 | 24340 ft | 427 kts | 252° |
| 2026-05-04 11:36 | 53.14969 | 7.89283 | 24643 ft | 425 kts | 252° |
| 2026-05-04 11:36 | 53.14082 | 7.84590 | 24948 ft | 424 kts | 252° |
| 2026-05-04 11:36 | 53.13199 | 7.79921 | 25249 ft | 423 kts | 252° |
| 2026-05-04 11:36 | 53.12311 | 7.75270 | 25565 ft | 421 kts | 252° |
| 2026-05-04 11:37 | 53.11418 | 7.70625 | 25870 ft | 420 kts | 251° |
| 2026-05-04 11:37 | 53.10528 | 7.66008 | 26172 ft | 419 kts | 251° |
| 2026-05-04 11:37 | 53.09637 | 7.61393 | 26519 ft | 417 kts | 251° |
| 2026-05-04 11:37 | 53.08753 | 7.56810 | 26854 ft | 415 kts | 251° |
| 2026-05-04 11:38 | 53.07869 | 7.52244 | 27202 ft | 414 kts | 251° |
| 2026-05-04 11:38 | 53.06986 | 7.47705 | 27517 ft | 412 kts | 251° |
| 2026-05-04 11:38 | 53.06102 | 7.43175 | 27825 ft | 411 kts | 251° |
| 2026-05-04 11:38 | 53.05217 | 7.38659 | 28155 ft | 410 kts | 251° |
| 2026-05-04 11:39 | 53.04347 | 7.34221 | 28478 ft | 409 kts | 251° |
| 2026-05-04 11:39 | 53.03466 | 7.29745 | 28800 ft | 408 kts | 251° |
| 2026-05-04 11:40 | 52.98099 | 7.03028 | 30507 ft | 404 kts | 250° |
| 2026-05-04 11:41 | 52.97193 | 6.98614 | 30758 ft | 404 kts | 250° |
| 2026-05-04 11:41 | 52.96290 | 6.94212 | 30999 ft | 404 kts | 250° |
| 2026-05-04 11:41 | 52.95386 | 6.89804 | 31238 ft | 403 kts | 250° |
| 2026-05-04 11:41 | 52.94483 | 6.85402 | 31479 ft | 403 kts | 250° |
| 2026-05-04 11:42 | 52.93566 | 6.80950 | 31718 ft | 403 kts | 250° |
| 2026-05-04 11:42 | 52.92662 | 6.76567 | 31961 ft | 402 kts | 250° |
| 2026-05-04 11:42 | 52.91754 | 6.72183 | 32199 ft | 402 kts | 250° |
| 2026-05-04 11:42 | 52.90846 | 6.67812 | 32429 ft | 401 kts | 250° |
| 2026-05-04 11:43 | 52.89939 | 6.63442 | 32656 ft | 401 kts | 250° |
| 2026-05-04 11:43 | 52.89030 | 6.59076 | 32885 ft | 401 kts | 250° |
| 2026-05-04 11:43 | 52.88121 | 6.54716 | 33095 ft | 401 kts | 250° |
| 2026-05-04 11:43 | 52.87208 | 6.50341 | 33274 ft | 402 kts | 250° |
| 2026-05-04 11:44 | 52.86304 | 6.46025 | 33476 ft | 402 kts | 250° |
| 2026-05-04 11:44 | 52.85372 | 6.41599 | 33688 ft | 402 kts | 250° |
| 2026-05-04 11:44 | 52.84448 | 6.37236 | 33911 ft | 402 kts | 250° |
| 2026-05-04 11:45 | 52.82601 | 6.28521 | 33997 ft | 405 kts | 250° |
| 2026-05-04 11:45 | 52.80741 | 6.19733 | 33996 ft | 405 kts | 250° |
| 2026-05-04 11:46 | 52.78876 | 6.10955 | 33988 ft | 405 kts | 250° |
| 2026-05-04 11:46 | 52.76979 | 6.02203 | 33997 ft | 406 kts | 248° |
| 2026-05-04 11:47 | 52.74799 | 5.93601 | 33997 ft | 407 kts | 245° |
| 2026-05-04 11:47 | 52.72450 | 5.85088 | 34001 ft | 408 kts | 245° |
| 2026-05-04 11:47 | 52.71288 | 5.80873 | 33997 ft | 396 kts | 245° |
| 2026-05-04 11:48 | 52.70177 | 5.76796 | 33997 ft | 385 kts | 245° |
| 2026-05-04 11:48 | 52.68021 | 5.68772 | 33997 ft | 381 kts | 245° |
| 2026-05-04 11:49 | 52.65860 | 5.60727 | 34002 ft | 381 kts | 245° |
| 2026-05-04 11:49 | 52.63722 | 5.52814 | 34003 ft | 381 kts | 245° |
| 2026-05-04 11:50 | 52.61568 | 5.44859 | 33996 ft | 380 kts | 245° |
| 2026-05-04 11:50 | 52.59400 | 5.36923 | 34014 ft | 380 kts | 245° |
| 2026-05-04 11:51 | 52.57228 | 5.28986 | 34013 ft | 381 kts | 245° |
| 2026-05-04 11:51 | 52.55055 | 5.21048 | 34014 ft | 381 kts | 245° |
| 2026-05-04 11:52 | 52.52877 | 5.13114 | 34013 ft | 381 kts | 245° |
| 2026-05-04 11:52 | 52.50684 | 5.05196 | 34012 ft | 381 kts | 244° |
| 2026-05-04 11:53 | 52.48490 | 4.97280 | 34030 ft | 381 kts | 244° |
| 2026-05-04 11:53 | 52.46288 | 4.89354 | 34003 ft | 382 kts | 244° |
| 2026-05-04 11:55 | 52.37755 | 4.58889 | 34005 ft | 383 kts | 244° |
| 2026-05-04 11:56 | 52.35534 | 4.51027 | 34014 ft | 383 kts | 244° |
| 2026-05-04 11:56 | 52.34378 | 4.46954 | 33527 ft | 396 kts | 243° |
| 2026-05-04 11:56 | 52.33217 | 4.42871 | 33261 ft | 405 kts | 243° |
| 2026-05-04 11:56 | 52.32007 | 4.38622 | 32985 ft | 408 kts | 243° |
| 2026-05-04 11:57 | 52.30822 | 4.34466 | 32726 ft | 410 kts | 243° |
| 2026-05-04 11:57 | 52.29614 | 4.30235 | 32455 ft | 411 kts | 243° |
| 2026-05-04 11:57 | 52.28404 | 4.25997 | 32200 ft | 412 kts | 243° |
| 2026-05-04 11:57 | 52.27188 | 4.21750 | 31931 ft | 413 kts | 243° |
| 2026-05-04 11:58 | 52.25976 | 4.17528 | 31678 ft | 414 kts | 243° |
| 2026-05-04 11:58 | 52.24753 | 4.13265 | 31423 ft | 415 kts | 243° |
| 2026-05-04 11:58 | 52.23525 | 4.08996 | 31166 ft | 416 kts | 243° |
| 2026-05-04 11:58 | 52.22294 | 4.04722 | 30916 ft | 417 kts | 243° |
| 2026-05-04 11:59 | 52.21057 | 4.00444 | 30641 ft | 418 kts | 242° |
| 2026-05-04 11:59 | 52.19816 | 3.96157 | 30390 ft | 419 kts | 242° |
| 2026-05-04 11:59 | 52.18569 | 3.91861 | 30179 ft | 421 kts | 242° |
| 2026-05-04 11:59 | 52.17311 | 3.87533 | 29920 ft | 423 kts | 242° |
| 2026-05-04 12:00 | 52.16048 | 3.83196 | 29620 ft | 425 kts | 242° |
| 2026-05-04 12:00 | 52.14775 | 3.78841 | 29329 ft | 426 kts | 242° |
| 2026-05-04 12:00 | 52.13500 | 3.74490 | 29056 ft | 427 kts | 243° |
| 2026-05-04 12:00 | 52.12222 | 3.70124 | 28779 ft | 428 kts | 243° |
| 2026-05-04 12:01 | 52.10945 | 3.65751 | 28504 ft | 429 kts | 243° |
| 2026-05-04 12:01 | 52.09659 | 3.61360 | 28229 ft | 430 kts | 243° |
| 2026-05-04 12:02 | 52.01849 | 3.34897 | 26652 ft | 434 kts | 243° |
| 2026-05-04 12:03 | 52.00553 | 3.30561 | 26386 ft | 419 kts | 243° |
| 2026-05-04 12:03 | 51.99300 | 3.26378 | 26131 ft | 405 kts | 243° |
| 2026-05-04 12:03 | 51.98088 | 3.22326 | 25870 ft | 394 kts | 243° |
| 2026-05-04 12:03 | 51.97026 | 3.18186 | 25622 ft | 402 kts | 251° |
| 2026-05-04 12:04 | 51.96356 | 3.13761 | 25377 ft | 407 kts | 259° |
| 2026-05-04 12:04 | 51.96039 | 3.09193 | 25131 ft | 409 kts | 262° |
| 2026-05-04 12:04 | 51.95755 | 3.04617 | 24880 ft | 403 kts | 262° |
| 2026-05-04 12:04 | 51.95478 | 3.00240 | 24647 ft | 390 kts | 262° |
| 2026-05-04 12:05 | 51.95197 | 2.95939 | 24404 ft | 378 kts | 262° |
| 2026-05-04 12:05 | 51.94922 | 2.91771 | 24183 ft | 367 kts | 262° |
| 2026-05-04 12:05 | 51.94654 | 2.87722 | 23945 ft | 357 kts | 262° |
| 2026-05-04 12:05 | 51.94390 | 2.83775 | 23712 ft | 348 kts | 262° |
| 2026-05-04 12:06 | 51.94126 | 2.79903 | 23458 ft | 344 kts | 262° |
| 2026-05-04 12:06 | 51.93869 | 2.76157 | 23186 ft | 343 kts | 262° |
| 2026-05-04 12:06 | 51.93603 | 2.72319 | 22913 ft | 342 kts | 262° |
| 2026-05-04 12:06 | 51.93341 | 2.68498 | 22640 ft | 341 kts | 262° |
| 2026-05-04 12:07 | 51.93082 | 2.64685 | 22370 ft | 340 kts | 262° |
| 2026-05-04 12:07 | 51.92823 | 2.60877 | 22102 ft | 340 kts | 262° |
| 2026-05-04 12:07 | 51.92564 | 2.57078 | 21905 ft | 337 kts | 262° |
| 2026-05-04 12:07 | 51.92304 | 2.53293 | 22026 ft | 339 kts | 262° |
| 2026-05-04 12:08 | 51.92042 | 2.49494 | 22024 ft | 340 kts | 262° |
| 2026-05-04 12:08 | 51.91777 | 2.45696 | 22027 ft | 340 kts | 262° |
| 2026-05-04 12:08 | 51.91510 | 2.41893 | 22037 ft | 340 kts | 262° |
| 2026-05-04 12:08 | 51.91237 | 2.38082 | 22027 ft | 341 kts | 262° |
| 2026-05-04 12:09 | 51.90964 | 2.34270 | 22027 ft | 341 kts | 262° |
| 2026-05-04 12:09 | 51.90720 | 2.30439 | 21816 ft | 343 kts | 264° |
| 2026-05-04 12:09 | 51.90582 | 2.26609 | 21489 ft | 340 kts | 266° |
| 2026-05-04 12:09 | 51.90506 | 2.22782 | 21142 ft | 339 kts | 267° |
| 2026-05-04 12:10 | 51.90453 | 2.18964 | 20793 ft | 339 kts | 267° |
| 2026-05-04 12:10 | 51.90399 | 2.15161 | 20447 ft | 338 kts | 267° |
| 2026-05-04 12:10 | 51.90334 | 2.11360 | 20104 ft | 337 kts | 267° |
| 2026-05-04 12:10 | 51.90258 | 2.07580 | 19766 ft | 336 kts | 266° |
| 2026-05-04 12:11 | 51.90169 | 2.03799 | 19414 ft | 335 kts | 266° |
| 2026-05-04 12:11 | 51.90075 | 2.00032 | 19070 ft | 335 kts | 266° |
| 2026-05-04 12:11 | 51.89979 | 1.96272 | 18728 ft | 334 kts | 266° |
| 2026-05-04 12:11 | 51.90037 | 1.92511 | 18386 ft | 335 kts | 274° |
| 2026-05-04 12:12 | 51.90402 | 1.88792 | 18016 ft | 335 kts | 282° |
| 2026-05-04 12:12 | 51.91066 | 1.85181 | 17539 ft | 335 kts | 289° |
| 2026-05-04 12:12 | 51.92026 | 1.81760 | 17079 ft | 333 kts | 297° |
| 2026-05-04 12:12 | 51.93128 | 1.78477 | 16626 ft | 330 kts | 296° |
| 2026-05-04 12:13 | 51.94210 | 1.75212 | 16175 ft | 328 kts | 296° |
| 2026-05-04 12:14 | 52.01488 | 1.52999 | 13343 ft | 302 kts | 296° |
| 2026-05-04 12:15 | 52.02464 | 1.50030 | 13129 ft | 296 kts | 296° |
| 2026-05-04 12:15 | 52.03432 | 1.47075 | 12859 ft | 296 kts | 296° |
| 2026-05-04 12:15 | 52.04380 | 1.44166 | 12610 ft | 295 kts | 296° |
| 2026-05-04 12:15 | 52.05347 | 1.41185 | 12356 ft | 294 kts | 296° |
| 2026-05-04 12:16 | 52.06283 | 1.38291 | 12096 ft | 293 kts | 296° |
| 2026-05-04 12:16 | 52.07226 | 1.35374 | 11891 ft | 289 kts | 296° |
| 2026-05-04 12:16 | 52.08163 | 1.32473 | 12020 ft | 292 kts | 296° |
| 2026-05-04 12:16 | 52.09120 | 1.29508 | 12031 ft | 292 kts | 296° |
| 2026-05-04 12:17 | 52.10054 | 1.26621 | 12030 ft | 292 kts | 296° |
| 2026-05-04 12:17 | 52.10927 | 1.23645 | 12029 ft | 291 kts | 287° |
| 2026-05-04 12:17 | 52.11338 | 1.20438 | 12028 ft | 290 kts | 272° |
| 2026-05-04 12:17 | 52.11232 | 1.17182 | 11770 ft | 287 kts | 258° |
| 2026-05-04 12:18 | 52.10728 | 1.14049 | 11551 ft | 286 kts | 254° |
| 2026-05-04 12:18 | 52.10204 | 1.10936 | 11334 ft | 285 kts | 254° |
| 2026-05-04 12:18 | 52.09683 | 1.07827 | 11115 ft | 284 kts | 254° |
| 2026-05-04 12:18 | 52.09166 | 1.04728 | 10901 ft | 283 kts | 255° |
| 2026-05-04 12:19 | 52.08653 | 1.01641 | 10689 ft | 283 kts | 255° |
| 2026-05-04 12:19 | 52.08141 | 0.98564 | 10470 ft | 282 kts | 255° |
| 2026-05-04 12:19 | 52.07628 | 0.95492 | 10261 ft | 281 kts | 254° |
| 2026-05-04 12:19 | 52.07122 | 0.92466 | 10080 ft | 273 kts | 254° |
| 2026-05-04 12:20 | 52.06632 | 0.89549 | 9966 ft | 262 kts | 254° |
| 2026-05-04 12:20 | 52.06162 | 0.86752 | 9827 ft | 252 kts | 254° |
| 2026-05-04 12:20 | 52.05707 | 0.84052 | 9618 ft | 246 kts | 254° |
| 2026-05-04 12:20 | 52.05265 | 0.81425 | 9307 ft | 244 kts | 254° |
| 2026-05-04 12:21 | 52.04817 | 0.78766 | 9084 ft | 244 kts | 254° |
| 2026-05-04 12:21 | 52.04399 | 0.76099 | 8879 ft | 244 kts | 262° |
| 2026-05-04 12:21 | 52.04333 | 0.73354 | 8629 ft | 243 kts | 270° |
| 2026-05-04 12:21 | 52.04379 | 0.70619 | 8287 ft | 242 kts | 271° |
| 2026-05-04 12:22 | 52.04438 | 0.67887 | 7939 ft | 242 kts | 271° |
| 2026-05-04 12:22 | 52.04498 | 0.65166 | 7601 ft | 241 kts | 271° |
| 2026-05-04 12:22 | 52.04556 | 0.62453 | 7271 ft | 240 kts | 271° |
| 2026-05-04 12:22 | 52.04614 | 0.59751 | 6937 ft | 239 kts | 271° |
| 2026-05-04 12:23 | 52.04672 | 0.57059 | 6595 ft | 238 kts | 271° |
| 2026-05-04 12:23 | 52.04725 | 0.54368 | 6254 ft | 238 kts | 271° |
| 2026-05-04 12:23 | 52.04773 | 0.51688 | 6002 ft | 235 kts | 271° |
| 2026-05-04 12:23 | 52.04817 | 0.49017 | 5992 ft | 239 kts | 271° |
| 2026-05-04 12:24 | 52.04869 | 0.46300 | 5995 ft | 240 kts | 271° |
| 2026-05-04 12:24 | 52.04922 | 0.43626 | 6005 ft | 240 kts | 271° |
| 2026-05-04 12:24 | 52.04882 | 0.40922 | 6008 ft | 239 kts | 256° |
| 2026-05-04 12:24 | 52.04288 | 0.38405 | 6003 ft | 239 kts | 243° |
| 2026-05-04 12:25 | 52.03527 | 0.36016 | 5810 ft | 238 kts | 242° |
| 2026-05-04 12:25 | 52.02743 | 0.33650 | 5566 ft | 237 kts | 241° |
| 2026-05-04 12:25 | 52.01950 | 0.31269 | 5310 ft | 236 kts | 241° |
| 2026-05-04 12:25 | 52.01168 | 0.28929 | 5057 ft | 235 kts | 241° |
| 2026-05-04 12:26 | 52.00312 | 0.26677 | 4805 ft | 234 kts | 231° |
| 2026-05-04 12:26 | 51.99242 | 0.24689 | 4546 ft | 234 kts | 227° |
| 2026-05-04 12:26 | 51.98129 | 0.22770 | 4285 ft | 233 kts | 226° |
| 2026-05-04 12:26 | 51.97018 | 0.20874 | 4072 ft | 232 kts | 226° |
| 2026-05-04 12:27 | 51.95918 | 0.19002 | 4004 ft | 232 kts | 226° |
| 2026-05-04 12:27 | 51.94802 | 0.17105 | 4009 ft | 233 kts | 226° |
| 2026-05-04 12:27 | 51.93683 | 0.15204 | 3982 ft | 232 kts | 226° |
| 2026-05-04 12:27 | 51.92566 | 0.13307 | 3742 ft | 232 kts | 226° |
| 2026-05-04 12:28 | 51.91463 | 0.11437 | 3497 ft | 226 kts | 226° |
| 2026-05-04 12:28 | 51.90402 | 0.09637 | 3252 ft | 217 kts | 226° |
| 2026-05-04 12:28 | 51.89374 | 0.07898 | 2991 ft | 211 kts | 226° |
| 2026-05-04 12:28 | 51.88371 | 0.06205 | 2744 ft | 209 kts | 226° |
| 2026-05-04 12:29 | 51.87361 | 0.04509 | 2552 ft | 209 kts | 226° |
| 2026-05-04 12:29 | 51.86351 | 0.02820 | 2496 ft | 209 kts | 226° |
| 2026-05-04 12:29 | 51.85269 | 0.01263 | 2501 ft | 209 kts | 211° |
| 2026-05-04 12:29 | 51.83933 | 0.00530 | 2505 ft | 202 kts | 186° |
| 2026-05-04 12:30 | 51.82530 | 0.00384 | 2514 ft | 198 kts | 182° |
| 2026-05-04 12:30 | 51.81171 | 0.00321 | 2507 ft | 190 kts | 181° |
| 2026-05-04 12:30 | 51.79862 | 0.00266 | 2520 ft | 187 kts | 181° |
| 2026-05-04 12:30 | 51.78579 | 0.00204 | 2496 ft | 181 kts | 181° |
| 2026-05-04 12:31 | 51.77334 | 0.00142 | 2495 ft | 178 kts | 181° |
| 2026-05-04 12:31 | 51.76139 | 0.00475 | 2493 ft | 175 kts | 149° |
| 2026-05-04 12:31 | 51.75397 | 0.01949 | 2493 ft | 171 kts | 105° |
| 2026-05-04 12:31 | 51.75483 | 0.03808 | 2496 ft | 169 kts | 63° |
| 2026-05-04 12:32 | 51.76260 | 0.05191 | 2499 ft | 167 kts | 40° |
| 2026-05-04 12:32 | 51.77949 | 0.07710 | 2501 ft | 159 kts | 42° |
| 2026-05-04 12:32 | 51.78728 | 0.08873 | 2499 ft | 148 kts | 43° |
| 2026-05-04 12:33 | 51.79476 | 0.09988 | 2474 ft | 146 kts | 42° |
| 2026-05-04 12:33 | 51.80213 | 0.11088 | 2363 ft | 143 kts | 41° |
| 2026-05-04 12:33 | 51.80940 | 0.12171 | 2194 ft | 142 kts | 42° |
| 2026-05-04 12:33 | 51.81669 | 0.13260 | 2014 ft | 143 kts | 42° |
| 2026-05-04 12:34 | 51.82399 | 0.14350 | 1831 ft | 142 kts | 41° |
| 2026-05-04 12:34 | 51.83124 | 0.15433 | 1640 ft | 141 kts | 41° |
| 2026-05-04 12:34 | 51.83611 | 0.16160 | 1503 ft | 141 kts | 41° |
| 2026-05-04 12:34 | 51.84330 | 0.17235 | 1307 ft | 140 kts | 41° |
| 2026-05-04 12:35 | 51.85048 | 0.18309 | 1109 ft | 141 kts | 42° |
| 2026-05-04 12:35 | 51.85768 | 0.19385 | 912 ft | 140 kts | 40° |
| 2026-05-04 12:35 | 51.86482 | 0.20454 | 721 ft | 139 kts | 40° |
| 2026-05-04 12:35 | 51.87192 | 0.21517 | 534 ft | 139 kts | 42° |
| 2026-05-04 12:36 | 51.88086 | 0.22854 | 346 ft | 135 kts | 41° |
| 2026-05-04 12:36 | 51.88541 | 0.23534 | 337 ft | 106 kts | 43° |
| 2026-05-04 12:36 | 51.88946 | 0.24139 | 350 ft | 49 kts | 41° |
| 2026-05-04 12:36 | 51.89059 | 0.24402 | 357 ft | 18 kts | 59° |
| 2026-05-04 12:37 | 51.89114 | 0.24590 | 349 ft | 19 kts | 68° |
| 2026-05-04 12:37 | 51.89139 | 0.24691 | 348 ft | 8 kts | 68° |
| 2026-05-04 12:37 | 51.89149 | 0.24728 | 350 ft | 0 kts | 68° |
| 2026-05-04 12:38 | 51.89155 | 0.24755 | 354 ft | 7 kts | 68° |
| 2026-05-04 12:38 | 51.89164 | 0.24856 | 343 ft | 8 kts | 118° |
| 2026-05-04 12:39 | 51.89124 | 0.24886 | 356 ft | 1 kts | 156° |
| 2026-05-04 12:39 | 51.89130 | 0.24886 | 353 ft | 1 kts | 99° |
| 2026-05-04 12:39 | 51.89126 | 0.24887 | 348 ft | 0 kts | 152° |